Time;durP1;ratioP1;P1;durP2;ratioP2;P2;SDS_P1;SDS_P2;PMS_P1;PMS_P2;Temp;Humidity;BMP_temperature;BMP_pressure;BME280_temperature;BME280_humidity;BME280_pressure;Samples;Min_cycle;Max_cycle;Signal;HPM_P1;HPM_P2
2023/09/06 00:00:51;;;;;;;;;17.40;17.40;;;;;19.72;46.36;99864.91;5091743;28;8873;-74
2023/09/06 00:03:35;;;;;;;;;21.80;20.80;;;;;19.79;46.09;99863.66;5091794;28;8855;-75
2023/09/06 00:06:05;;;;;;;;;22.00;22.00;;;;;19.83;47.69;99865.19;5095920;28;8856;-74
2023/09/06 00:08:34;;;;;;;;;27.80;26.80;;;;;19.85;48.39;99860.63;5094506;28;8867;-73
2023/09/06 00:11:05;;;;;;;;;24.20;24.00;;;;;19.85;48.71;99863.31;5091562;28;8974;-77
2023/09/06 00:13:36;;;;;;;;;24.40;24.40;;;;;19.87;48.03;99864.09;5091183;28;8858;-77
2023/09/06 00:16:07;;;;;;;;;25.60;23.40;;;;;19.83;46.96;99857.19;5090542;28;8855;-74
2023/09/06 00:18:37;;;;;;;;;19.20;19.20;;;;;19.81;46.45;99851.09;5105655;28;8940;-76
2023/09/06 00:21:06;;;;;;;;;25.00;23.40;;;;;19.83;47.06;99859.88;5091369;28;8944;-76
2023/09/06 00:23:35;;;;;;;;;22.20;22.20;;;;;19.76;46.72;99853.13;5091237;28;8970;-75
2023/09/06 00:26:04;;;;;;;;;24.00;21.60;;;;;19.74;47.28;99855.03;5091610;28;8827;-75
2023/09/06 00:28:33;;;;;;;;;22.60;22.60;;;;;19.76;46.75;99862.94;5090011;28;8859;-75
2023/09/06 00:31:03;;;;;;;;;25.00;23.80;;;;;19.75;47.09;99867.44;5089274;28;8847;-73
2023/09/06 00:33:35;;;;;;;;;25.60;24.00;;;;;19.74;47.15;99868.38;5105633;28;8831;-74
2023/09/06 00:36:06;;;;;;;;;24.60;24.00;;;;;19.70;47.24;99869.47;5091089;28;8978;-75
2023/09/06 00:38:35;;;;;;;;;16.60;16.40;;;;;19.71;47.06;99866.75;5089749;28;8887;-74
2023/09/06 00:41:04;;;;;;;;;25.40;24.20;;;;;19.70;47.14;99864.16;5106658;28;8864;-74
2023/09/06 00:43:33;;;;;;;;;28.40;27.40;;;;;19.72;47.92;99864.91;5090670;28;8847;-75
2023/09/06 00:46:07;;;;;;;;;22.40;20.60;;;;;19.71;47.95;99863.22;5089525;28;8859;-73
2023/09/06 00:48:37;;;;;;;;;23.80;23.80;;;;;19.70;47.47;99872.16;5090745;28;8860;-73
2023/09/06 00:51:07;;;;;;;;;32.80;29.20;;;;;19.69;47.81;99865.97;5105864;28;8833;-75
2023/09/06 00:53:37;;;;;;;;;30.60;27.60;;;;;19.65;47.86;99867.06;5075720;28;8958;-77
2023/09/06 00:56:08;;;;;;;;;25.80;25.20;;;;;19.65;47.75;99859.06;5104765;28;8851;-73
2023/09/06 00:58:38;;;;;;;;;25.40;23.40;;;;;19.63;47.45;99860.09;5089725;28;8848;-73
2023/09/06 01:01:09;;;;;;;;;29.40;25.80;;;;;19.60;47.17;99862.94;5108897;28;8922;-73
2023/09/06 01:03:40;;;;;;;;;23.00;23.00;;;;;19.59;46.99;99855.84;5073917;28;9589;-76
2023/09/06 01:06:16;;;;;;;;;22.20;21.60;;;;;19.53;47.62;99865.06;5105018;28;9677;-74
2023/09/06 01:08:50;;;;;;;;;23.20;22.60;;;;;19.44;47.41;99855.72;5123182;27;8855;-74
2023/09/06 01:11:21;;;;;;;;;25.80;24.80;;;;;19.47;48.45;99852.88;5090199;28;8843;-76
2023/09/06 01:13:52;;;;;;;;;26.60;26.40;;;;;19.60;48.53;99857.59;5089419;28;8932;-75
2023/09/06 01:16:26;;;;;;;;;29.80;27.00;;;;;19.63;48.25;99849.41;5067226;28;8840;-73
2023/09/06 01:18:57;;;;;;;;;24.00;23.40;;;;;19.59;48.09;99845.19;5067189;28;9028;-73
2023/09/06 01:21:35;;;;;;;;;25.20;24.00;;;;;19.65;47.71;99840.41;5067100;28;8824;-72
2023/09/06 01:24:07;;;;;;;;;24.60;24.60;;;;;19.63;47.70;99839.63;5065624;28;8830;-77
2023/09/06 01:26:36;;;;;;;;;21.80;20.80;;;;;19.64;48.29;99835.16;5050608;28;8842;-74
2023/09/06 01:29:05;;;;;;;;;23.80;22.80;;;;;19.62;48.35;99839.72;5034150;28;8851;-77
2023/09/06 01:31:34;;;;;;;;;25.60;24.40;;;;;19.61;48.21;99835.31;5066675;28;8852;-74
2023/09/06 01:34:04;;;;;;;;;27.00;25.80;;;;;19.61;48.37;99838.84;5066909;28;8832;-74
2023/09/06 01:36:33;;;;;;;;;19.80;19.80;;;;;19.60;47.88;99837.13;5066861;28;9030;-74
2023/09/06 01:39:04;;;;;;;;;20.60;16.20;;;;;19.39;48.08;99839.09;5065958;28;8938;-75
2023/09/06 01:41:34;;;;;;;;;24.40;23.40;;;;;19.41;48.22;99847.88;5050121;28;8845;-75
2023/09/06 01:44:03;;;;;;;;;24.80;24.80;;;;;19.32;48.39;99841.22;5048651;28;8861;-74
2023/09/06 01:46:31;;;;;;;;;24.00;24.00;;;;;19.16;49.24;99847.44;5051211;28;8851;-73
2023/09/06 01:49:00;;;;;;;;;24.80;24.80;;;;;19.04;50.03;99836.47;5074576;28;9686;-75
2023/09/06 01:51:31;;;;;;;;;22.20;20.40;;;;;18.84;50.33;99836.66;5110045;28;8867;-74
2023/09/06 01:54:01;;;;;;;;;23.00;20.60;;;;;18.72;50.34;99846.94;5057493;28;8941;-73
2023/09/06 01:56:29;;;;;;;;;25.40;21.40;;;;;18.78;50.53;99842.22;5128936;27;8861;-74
2023/09/06 01:59:00;;;;;;;;;22.80;22.60;;;;;18.67;50.76;99846.31;5110227;28;9578;-74
2023/09/06 02:01:30;;;;;;;;;20.00;19.40;;;;;18.78;50.35;99847.56;5110008;28;8837;-74
2023/09/06 02:04:01;;;;;;;;;23.00;21.00;;;;;18.71;50.94;99842.53;5104214;28;8852;-74
2023/09/06 02:06:30;;;;;;;;;24.00;23.00;;;;;18.75;51.49;99854.75;5087847;28;8847;-76
2023/09/06 02:08:59;;;;;;;;;25.40;25.40;;;;;18.83;51.17;99850.88;5069879;28;8924;-75
2023/09/06 02:11:28;;;;;;;;;23.40;22.00;;;;;18.95;51.07;99863.59;5104740;28;8859;-75
2023/09/06 02:13:57;;;;;;;;;24.60;23.60;;;;;18.96;50.93;99851.13;5104601;27;8847;-75
2023/09/06 02:16:28;;;;;;;;;24.40;22.80;;;;;18.97;50.80;99844.84;5089080;28;8851;-74
2023/09/06 02:18:58;;;;;;;;;20.40;19.80;;;;;19.01;50.42;99851.78;5106999;28;8857;-75
2023/09/06 02:21:27;;;;;;;;;21.60;21.00;;;;;19.07;49.98;99851.44;5124761;27;8857;-74
2023/09/06 02:23:56;;;;;;;;;19.20;18.00;;;;;19.12;49.52;99852.94;5108413;28;8857;-74
2023/09/06 02:26:25;;;;;;;;;23.20;19.40;;;;;19.14;49.42;99852.84;5072982;28;8867;-75
2023/09/06 02:28:54;;;;;;;;;19.00;19.00;;;;;19.18;49.35;99862.41;5114584;27;8835;-75
2023/09/06 02:31:23;;;;;;;;;25.40;24.60;;;;;19.22;49.69;99858.63;5087410;28;8859;-77
2023/09/06 02:33:55;;;;;;;;;23.00;20.20;;;;;19.27;49.48;99858.38;5091079;28;8847;-74
2023/09/06 02:36:24;;;;;;;;;23.00;22.60;;;;;19.23;49.65;99854.16;5109130;28;8844;-74
2023/09/06 02:38:53;;;;;;;;;18.40;18.40;;;;;19.17;49.19;99855.34;5109304;28;8855;-74
2023/09/06 02:41:21;;;;;;;;;18.40;18.40;;;;;19.13;49.24;99851.97;5089887;28;8997;-74
2023/09/06 02:43:50;;;;;;;;;19.20;18.60;;;;;19.11;49.25;99855.66;5090601;28;8845;-75
2023/09/06 02:46:19;;;;;;;;;20.40;19.80;;;;;19.15;49.62;99853.72;5073424;28;8977;-77
2023/09/06 02:48:48;;;;;;;;;22.00;18.20;;;;;19.11;49.65;99850.34;5121123;27;8859;-74
2023/09/06 02:51:18;;;;;;;;;18.20;17.00;;;;;19.07;50.15;99849.63;5103913;28;9978;-73
2023/09/06 02:53:47;;;;;;;;;14.60;14.40;;;;;19.06;49.69;99855.03;5070453;27;8884;-74
2023/09/06 02:56:16;;;;;;;;;19.40;19.20;;;;;19.05;50.02;99853.34;5124109;27;9084;-74
2023/09/06 02:58:45;;;;;;;;;20.00;18.20;;;;;19.02;50.12;99849.00;5069038;27;8904;-74
2023/09/06 03:01:19;;;;;;;;;23.00;19.80;;;;;18.97;50.13;99852.84;5053368;28;8871;-74
2023/09/06 03:03:53;;;;;;;;;20.60;18.20;;;;;18.95;50.47;99847.63;5086132;28;9633;-74
2023/09/06 03:06:32;;;;;;;;;19.20;18.20;;;;;18.78;49.82;99848.44;5086961;28;8959;-75
2023/09/06 03:09:06;;;;;;;;;16.60;16.00;;;;;18.72;48.49;99854.94;5104375;27;8954;-75
2023/09/06 03:11:37;;;;;;;;;15.00;15.00;;;;;18.70;47.67;99853.25;5086767;28;8963;-72
2023/09/06 03:14:06;;;;;;;;;11.60;11.60;;;;;18.67;47.50;99846.31;5070337;28;8940;-75
2023/09/06 03:16:39;;;;;;;;;12.20;12.20;;;;;18.70;47.35;99856.78;5053306;28;8851;-75
2023/09/06 03:19:11;;;;;;;;;13.80;11.20;;;;;18.65;47.23;99856.16;5086053;28;8958;-74
2023/09/06 03:21:42;;;;;;;;;13.80;12.60;;;;;18.77;47.04;99856.50;5103758;28;9657;-75
2023/09/06 03:24:13;;;;;;;;;13.40;12.40;;;;;18.80;46.84;99857.25;5110723;27;8888;-74
2023/09/06 03:26:44;;;;;;;;;12.00;11.20;;;;;18.81;46.80;99855.44;5043318;27;8955;-74
2023/09/06 03:29:20;;;;;;;;;14.20;13.20;;;;;18.88;46.64;99862.19;5111008;27;9005;-75
2023/09/06 03:31:49;;;;;;;;;14.40;12.20;;;;;18.91;46.57;99860.22;5128311;27;8868;-74
2023/09/06 03:34:18;;;;;;;;;15.40;15.40;;;;;18.93;46.51;99863.66;5112569;27;8849;-74
2023/09/06 03:36:51;;;;;;;;;14.40;13.60;;;;;18.92;46.45;99851.28;5111740;27;8897;-76
2023/09/06 03:39:28;;;;;;;;;13.80;13.40;;;;;18.96;46.15;99867.13;5105163;28;8847;-76
2023/09/06 03:42:00;;;;;;;;;12.80;12.80;;;;;18.96;46.29;99856.47;5106284;28;8957;-74
2023/09/06 03:44:31;;;;;;;;;13.60;13.60;;;;;18.98;45.94;99860.75;5113301;27;8853;-76
2023/09/06 03:47:04;;;;;;;;;13.40;12.40;;;;;18.99;46.04;99866.94;5109288;27;8829;-75
2023/09/06 03:49:35;;;;;;;;;16.40;14.00;;;;;18.93;46.04;99860.13;5113646;27;8845;-75
2023/09/06 03:52:06;;;;;;;;;14.80;12.60;;;;;18.98;45.57;99859.91;5109612;27;8896;-74
2023/09/06 03:54:36;;;;;;;;;16.60;13.80;;;;;18.96;45.14;99862.66;5101311;28;8890;-75
2023/09/06 03:57:05;;;;;;;;;13.00;12.40;;;;;18.93;45.08;99865.44;5103652;28;8852;-73
2023/09/06 03:59:36;;;;;;;;;14.20;14.20;;;;;18.99;44.91;99861.63;5091848;28;8851;-76
2023/09/06 04:02:13;;;;;;;;;13.00;11.40;;;;;19.01;44.47;99860.63;5126261;27;8837;-76
2023/09/06 04:04:44;;;;;;;;;11.40;10.00;;;;;18.98;44.20;99871.41;5103155;27;8922;-74
2023/09/06 04:07:15;;;;;;;;;11.20;11.20;;;;;19.05;44.12;99867.50;5132695;27;8862;-76
2023/09/06 04:09:44;;;;;;;;;9.80;9.60;;;;;19.10;44.07;99869.91;5104292;27;8886;-75
2023/09/06 04:12:12;;;;;;;;;12.20;11.40;;;;;19.13;43.77;99867.97;5099254;27;8851;-74
2023/09/06 04:14:41;;;;;;;;;20.00;18.60;;;;;19.19;43.53;99866.78;5138460;27;8857;-75
2023/09/06 04:17:12;;;;;;;;;12.80;12.40;;;;;19.18;43.53;99869.53;5077693;27;8950;-74
2023/09/06 04:19:41;;;;;;;;;12.40;12.40;;;;;19.20;43.89;99868.53;5107112;28;8896;-75
2023/09/06 04:22:13;;;;;;;;;13.00;13.00;;;;;19.24;43.42;99874.56;5091997;28;9065;-72
2023/09/06 04:24:43;;;;;;;;;13.20;11.20;;;;;19.24;43.32;99872.75;5090313;28;8815;-74
2023/09/06 04:27:12;;;;;;;;;10.40;10.40;;;;;19.34;43.21;99881.13;5112724;28;8851;-73
2023/09/06 04:29:42;;;;;;;;;13.40;13.40;;;;;19.36;43.25;99881.91;5078246;28;8828;-78
2023/09/06 04:32:11;;;;;;;;;13.60;12.40;;;;;19.48;42.90;99875.94;5092280;28;8871;-75
2023/09/06 04:34:40;;;;;;;;;24.00;23.40;;;;;19.54;43.10;99882.78;5088507;28;8822;-74
2023/09/06 04:37:12;;;;;;;;;21.00;19.40;;;;;19.53;43.56;99889.03;5072773;28;8841;-74
2023/09/06 04:39:44;;;;;;;;;20.20;19.80;;;;;19.21;44.61;99886.22;5066693;28;8927;-74
2023/09/06 04:42:14;;;;;;;;;18.60;17.00;;;;;18.82;45.98;99894.44;5067766;28;8871;-72
2023/09/06 04:44:44;;;;;;;;;20.40;19.00;;;;;18.52;46.72;99897.66;5053729;28;8845;-77
2023/09/06 04:47:14;;;;;;;;;17.00;16.20;;;;;18.38;47.55;99902.75;5067705;28;8847;-75
2023/09/06 04:49:45;;;;;;;;;23.40;22.20;;;;;18.43;47.28;99901.59;5052755;28;8901;-74
2023/09/06 04:52:15;;;;;;;;;20.80;20.20;;;;;18.38;47.24;99902.75;5071540;28;8882;-73
2023/09/06 04:54:46;;;;;;;;;18.80;17.40;;;;;18.41;46.89;99898.16;5099027;28;8825;-75
2023/09/06 04:57:16;;;;;;;;;18.60;16.20;;;;;18.62;46.78;99906.03;5126392;27;8825;-74
2023/09/06 04:59:46;;;;;;;;;22.80;22.80;;;;;18.74;46.28;99898.31;5073873;28;8881;-72
2023/09/06 05:02:16;;;;;;;;;17.20;16.00;;;;;18.86;45.84;99906.69;5105443;28;8859;-72
2023/09/06 05:04:45;;;;;;;;;16.40;16.40;;;;;18.66;45.94;99918.28;5067388;28;8840;-77
2023/09/06 05:07:14;;;;;;;;;20.60;17.00;;;;;18.18;47.04;99919.69;5066735;28;8871;-75
2023/09/06 05:09:45;;;;;;;;;17.80;17.80;;;;;18.21;47.54;99920.38;5067160;28;8850;-77
2023/09/06 05:12:16;;;;;;;;;17.60;16.60;;;;;18.00;48.46;99916.88;5070200;28;8853;-76
2023/09/06 05:14:45;;;;;;;;;18.20;17.20;;;;;18.20;47.69;99923.13;5048794;28;8860;-72
2023/09/06 05:17:14;;;;;;;;;13.20;13.20;;;;;18.53;46.87;99924.19;5091150;28;8870;-72
2023/09/06 05:19:43;;;;;;;;;23.00;22.60;;;;;18.88;46.30;99920.78;5051237;28;8938;-74
2023/09/06 05:22:12;;;;;;;;;21.00;19.60;;;;;19.21;46.26;99920.88;5022371;28;8854;-76
2023/09/06 05:24:41;;;;;;;;;17.20;16.80;;;;;19.48;45.63;99921.25;5099626;28;8869;-76
2023/09/06 05:27:09;;;;;;;;;18.00;16.80;;;;;19.72;45.52;99920.94;5070487;28;9641;-74
2023/09/06 05:29:40;;;;;;;;;18.00;17.80;;;;;19.94;44.94;99920.66;5019803;28;8876;-72
2023/09/06 05:32:09;;;;;;;;;19.40;19.40;;;;;20.13;45.14;99925.84;5083172;28;8864;-75
2023/09/06 05:34:39;;;;;;;;;15.60;15.00;;;;;20.28;44.31;99925.03;5078675;28;8834;-77
2023/09/06 05:37:09;;;;;;;;;17.80;15.20;;;;;20.44;43.70;99927.72;5043351;28;8850;-74
2023/09/06 05:39:38;;;;;;;;;15.40;15.40;;;;;20.62;43.24;99933.81;5028419;28;8991;-74
2023/09/06 05:42:08;;;;;;;;;17.80;17.80;;;;;20.76;42.90;99940.19;5075172;28;8963;-74
2023/09/06 05:44:38;;;;;;;;;18.00;16.40;;;;;20.93;42.88;99933.91;5072221;28;8844;-76
2023/09/06 05:47:08;;;;;;;;;23.00;21.60;;;;;21.03;43.12;99940.41;5081589;28;8967;-74
2023/09/06 05:49:37;;;;;;;;;16.00;14.20;;;;;21.13;42.49;99933.59;5012374;28;8836;-78
2023/09/06 05:52:06;;;;;;;;;15.60;15.40;;;;;21.26;42.26;99941.78;5049677;28;8961;-77
2023/09/06 05:54:35;;;;;;;;;17.80;17.80;;;;;21.34;41.96;99942.16;5049554;28;8854;-76
2023/09/06 05:57:05;;;;;;;;;17.60;17.60;;;;;21.39;41.94;99942.75;5023095;28;8859;-75
2023/09/06 05:59:34;;;;;;;;;48.50;39.25;;;;;21.49;41.63;99940.38;5066696;28;8862;-77
2023/09/06 06:02:03;;;;;;;;;27.20;26.60;;;;;21.58;41.84;99944.31;5051223;28;9716;-76
2023/09/06 06:04:34;;;;;;;;;28.40;26.00;;;;;21.60;41.79;99947.81;5062615;28;8896;-76
2023/09/06 06:07:03;;;;;;;;;16.60;16.60;;;;;21.63;41.19;99943.13;5045950;28;8892;-76
2023/09/06 06:09:32;;;;;;;;;16.00;16.00;;;;;21.78;40.97;99943.13;5045774;28;8842;-74
2023/09/06 06:12:03;;;;;;;;;14.80;14.40;;;;;21.91;40.78;99945.91;5045791;28;8928;-75
2023/09/06 06:14:32;;;;;;;;;12.60;12.60;;;;;21.92;40.47;99951.16;5060780;28;8878;-78
2023/09/06 06:17:01;;;;;;;;;15.20;15.20;;;;;22.02;39.97;99946.94;5088314;28;8851;-76
2023/09/06 06:19:30;;;;;;;;;15.00;14.20;;;;;22.10;39.98;99949.16;5089779;28;8859;-75
2023/09/06 06:22:03;;;;;;;;;12.60;12.60;;;;;22.15;38.96;99952.41;5091866;28;8952;-75
2023/09/06 06:24:34;;;;;;;;;13.00;12.80;;;;;22.15;39.30;99948.88;5092060;28;8882;-75
2023/09/06 06:27:04;;;;;;;;;13.80;13.20;;;;;22.20;38.91;99965.50;5091062;28;8851;-75
2023/09/06 06:29:33;;;;;;;;;7.00;6.20;;;;;22.27;38.66;99968.69;5063622;28;8861;-76
2023/09/06 06:32:02;;;;;;;;;15.00;12.80;;;;;22.31;38.50;99973.75;5091399;28;8844;-76
2023/09/06 06:34:31;;;;;;;;;9.00;9.00;;;;;22.35;38.32;99977.09;5089418;28;8871;-77
2023/09/06 06:37:01;;;;;;;;;13.20;13.20;;;;;22.37;38.30;99981.41;5088235;28;8904;-75
2023/09/06 06:39:30;;;;;;;;;10.20;10.20;;;;;22.48;37.88;99988.75;5088931;28;8858;-77
2023/09/06 06:41:58;;;;;;;;;12.40;12.40;;;;;22.61;38.22;99991.50;5104068;28;8864;-78
2023/09/06 06:44:34;;;;;;;;;11.60;10.20;;;;;22.70;37.64;99990.91;5087072;28;9577;-76
2023/09/06 06:47:04;;;;;;;;;9.00;9.00;;;;;22.79;37.59;99982.28;5087647;28;9063;-73
2023/09/06 06:49:33;;;;;;;;;11.20;11.00;;;;;22.93;37.42;99991.25;5087577;28;8851;-76
2023/09/06 06:52:04;;;;;;;;;11.00;11.00;;;;;22.95;37.01;99989.34;5087620;28;8923;-80
2023/09/06 06:54:33;;;;;;;;;12.60;10.60;;;;;23.14;37.37;99988.97;5088091;28;8867;-75
2023/09/06 06:57:01;;;;;;;;;12.80;12.40;;;;;23.19;37.03;99995.75;5088309;28;8858;-77
2023/09/06 06:59:30;;;;;;;;;13.80;13.80;;;;;23.33;36.70;99988.59;5106712;28;8857;-76
2023/09/06 07:01:59;;;;;;;;;14.40;14.20;;;;;23.43;36.63;99984.34;5108578;28;8881;-75
2023/09/06 07:04:28;;;;;;;;;13.40;13.40;;;;;23.58;36.52;99986.00;5108587;28;8848;-77
2023/09/06 07:06:56;;;;;;;;;11.60;11.60;;;;;23.64;35.98;99983.84;5107415;28;8875;-77
2023/09/06 07:09:27;;;;;;;;;13.00;13.00;;;;;23.73;35.87;99991.28;5108330;28;8841;-76
2023/09/06 07:11:56;;;;;;;;;11.20;11.00;;;;;23.80;35.70;99994.41;5110212;28;8841;-73
2023/09/06 07:14:25;;;;;;;;;10.00;10.00;;;;;23.87;35.37;99987.66;5091267;28;8857;-76
2023/09/06 07:16:54;;;;;;;;;10.40;9.60;;;;;24.02;35.13;99994.63;5076465;28;8853;-77
2023/09/06 07:19:23;;;;;;;;;11.80;11.40;;;;;23.98;34.25;99987.75;5092969;28;8856;-76
2023/09/06 07:21:52;;;;;;;;;10.80;10.80;;;;;24.11;34.61;99993.09;5088855;28;8877;-76
2023/09/06 07:24:21;;;;;;;;;13.40;13.40;;;;;24.20;34.18;99999.69;5088328;28;8866;-76
2023/09/06 07:26:51;;;;;;;;;10.00;9.00;;;;;24.15;33.72;99995.50;5088712;28;8913;-76
2023/09/06 07:29:20;;;;;;;;;11.40;11.40;;;;;24.24;33.43;99993.13;5088009;28;8839;-76
2023/09/06 07:31:49;;;;;;;;;12.80;12.20;;;;;24.30;34.03;100000.75;5104079;28;8863;-76
2023/09/06 07:34:17;;;;;;;;;13.60;11.80;;;;;24.28;34.33;99995.50;5088399;28;8908;-77
2023/09/06 07:36:46;;;;;;;;;9.80;9.80;;;;;24.38;34.65;99990.31;5088451;28;8840;-75
2023/09/06 07:39:17;;;;;;;;;12.00;12.00;;;;;24.41;33.99;99995.47;5087122;28;8982;-74
2023/09/06 07:41:46;;;;;;;;;10.40;10.40;;;;;24.31;34.14;99989.03;5090299;28;8871;-77
2023/09/06 07:44:18;;;;;;;;;10.80;10.80;;;;;24.38;33.83;99998.38;5092076;28;8936;-75
2023/09/06 07:46:48;;;;;;;;;11.00;11.00;;;;;24.40;34.31;99993.75;5091880;28;8839;-76
2023/09/06 07:49:18;;;;;;;;;9.80;9.80;;;;;24.34;33.06;99996.88;5090260;28;8844;-77
2023/09/06 07:51:47;;;;;;;;;10.60;10.00;;;;;24.39;33.41;99981.28;5090905;28;8999;-77
2023/09/06 07:54:16;;;;;;;;;12.20;12.20;;;;;24.37;33.34;99991.28;5091613;28;9722;-77
2023/09/06 07:56:47;;;;;;;;;9.20;9.20;;;;;24.28;32.39;99989.25;5089977;28;8876;-76
2023/09/06 07:59:22;;;;;;;;;11.60;11.60;;;;;24.27;32.33;99996.47;5091487;28;8968;-79
2023/09/06 08:01:51;;;;;;;;;10.40;10.00;;;;;24.09;33.21;100000.41;5090979;28;9745;-75
2023/09/06 08:04:21;;;;;;;;;12.20;12.20;;;;;24.09;33.02;99992.34;5091796;28;8844;-75
2023/09/06 08:06:50;;;;;;;;;11.00;10.80;;;;;24.21;33.25;99993.38;5092086;28;8848;-75
2023/09/06 08:09:19;;;;;;;;;10.00;10.00;;;;;24.15;33.69;99995.50;5109733;28;8854;-76
2023/09/06 08:11:48;;;;;;;;;13.00;12.20;;;;;24.36;33.58;99994.94;5094569;28;8860;-78
2023/09/06 08:14:18;;;;;;;;;8.60;8.60;;;;;24.40;34.15;99998.28;5091904;28;8836;-78
2023/09/06 08:16:47;;;;;;;;;12.40;12.40;;;;;24.33;34.32;99998.69;5091308;28;8848;-76
2023/09/06 08:19:16;;;;;;;;;12.40;12.00;;;;;24.43;34.30;99998.88;5091354;28;8971;-77
2023/09/06 08:21:44;;;;;;;;;10.40;10.40;;;;;24.63;33.91;99999.28;5089603;28;8878;-74
2023/09/06 08:24:13;;;;;;;;;6.40;6.40;;;;;24.63;34.32;99996.59;5091570;28;8851;-75
2023/09/06 08:26:42;;;;;;;;;11.20;11.20;;;;;24.80;34.25;100001.63;5091336;28;8962;-77
2023/09/06 08:29:11;;;;;;;;;12.80;10.40;;;;;24.89;34.51;99992.03;5091449;28;8948;-76
2023/09/06 08:31:41;;;;;;;;;14.80;14.80;;;;;24.74;35.40;99991.34;5090641;28;8844;-75
2023/09/06 08:34:11;;;;;;;;;15.60;15.20;;;;;24.83;34.69;99997.84;5073119;28;8970;-75
2023/09/06 08:36:40;;;;;;;;;12.20;11.20;;;;;24.89;35.03;100000.97;5091146;28;8852;-76
2023/09/06 08:39:08;;;;;;;;;17.20;15.40;;;;;24.86;34.59;99994.94;5090868;28;9647;-78
2023/09/06 08:41:38;;;;;;;;;13.20;12.80;;;;;24.98;34.36;99998.53;5071973;28;8832;-75
2023/09/06 08:44:11;;;;;;;;;11.80;11.80;;;;;25.07;33.84;99995.16;5090472;28;8835;-76
2023/09/06 08:46:44;;;;;;;;;10.20;10.20;;;;;25.20;32.89;99995.13;5090666;28;8959;-76
2023/09/06 08:49:14;;;;;;;;;11.60;11.60;;;;;25.25;32.60;99996.50;5090509;28;8855;-78
2023/09/06 08:51:45;;;;;;;;;15.20;14.00;;;;;25.15;32.36;99995.44;5090656;28;8879;-75
2023/09/06 08:54:15;;;;;;;;;11.40;11.40;;;;;25.25;31.93;99999.19;5090344;28;9760;-76
2023/09/06 08:56:44;;;;;;;;;10.40;10.40;;;;;25.30;31.21;99988.06;5071470;28;8848;-75
2023/09/06 08:59:14;;;;;;;;;13.60;11.80;;;;;25.35;31.19;99988.59;5090482;28;8986;-75
2023/09/06 09:01:44;;;;;;;;;13.00;12.20;;;;;25.32;31.31;99991.50;5093238;28;8874;-75
2023/09/06 09:04:13;;;;;;;;;13.00;12.60;;;;;25.34;31.48;99992.28;5092118;28;8848;-75
2023/09/06 09:06:43;;;;;;;;;9.80;9.80;;;;;25.41;31.72;99996.19;5091645;28;8844;-76
2023/09/06 09:09:17;;;;;;;;;12.00;12.00;;;;;25.45;31.81;99994.13;5090706;28;8913;-76
2023/09/06 09:11:47;;;;;;;;;14.00;14.00;;;;;25.40;31.78;99993.66;5090214;28;9654;-76
2023/09/06 09:14:21;;;;;;;;;11.40;11.40;;;;;25.55;31.34;99994.28;5088918;28;8970;-77
2023/09/06 09:16:58;;;;;;;;;13.40;12.40;;;;;25.62;31.10;99993.69;5089085;28;8840;-77
2023/09/06 09:19:27;;;;;;;;;11.40;9.60;;;;;25.57;30.92;99992.31;5088429;28;8862;-75
2023/09/06 09:21:56;;;;;;;;;13.40;12.80;;;;;25.58;31.10;99989.53;5090208;28;8836;-76
2023/09/06 09:24:27;;;;;;;;;15.40;13.80;;;;;25.64;31.11;99989.06;5090056;28;8894;-78
2023/09/06 09:26:57;;;;;;;;;11.20;11.20;;;;;25.73;31.39;99990.19;5090332;28;8889;-75
2023/09/06 09:29:28;;;;;;;;;13.20;13.20;;;;;25.81;31.14;99982.34;5071714;28;8947;-73
2023/09/06 09:32:04;;;;;;;;;11.20;11.20;;;;;25.94;31.35;99984.97;5089915;28;8994;-76
2023/09/06 09:34:33;;;;;;;;;16.20;13.20;;;;;25.90;31.05;99986.19;5089542;28;9006;-77
2023/09/06 09:37:05;;;;;;;;;10.60;9.80;;;;;25.95;31.20;99988.53;5089731;28;8990;-75
2023/09/06 09:39:35;;;;;;;;;14.00;13.60;;;;;25.85;31.07;99993.75;5089495;28;8847;-76
2023/09/06 09:42:05;;;;;;;;;13.20;11.80;;;;;25.88;31.34;99988.97;5089657;28;8855;-76
2023/09/06 09:44:34;;;;;;;;;12.80;10.00;;;;;25.82;31.40;99988.63;5088208;28;8844;-78
2023/09/06 09:47:11;;;;;;;;;10.20;10.20;;;;;25.99;30.67;99985.47;5089642;28;10039;-75
2023/09/06 09:50:02;;;;;;;;;10.80;10.80;;;;;25.96;31.20;99988.41;5088460;28;8875;-76
2023/09/06 09:52:32;;;;;;;;;11.40;11.20;;;;;25.92;31.25;99986.94;5089540;28;8869;-75
2023/09/06 09:55:04;;;;;;;;;11.20;10.20;;;;;25.87;30.55;99999.84;5089508;28;8902;-75
2023/09/06 09:57:35;;;;;;;;;11.40;11.20;;;;;25.84;30.73;99998.28;5089371;28;8845;-75
2023/09/06 10:00:09;;;;;;;;;10.60;10.40;;;;;25.93;30.30;99999.44;5089923;28;8838;-75
2023/09/06 10:02:43;;;;;;;;;10.80;10.60;;;;;26.03;30.12;99992.34;5040751;28;8904;-76
2023/09/06 10:05:17;;;;;;;;;12.60;12.60;;;;;25.96;29.88;99992.94;5053629;28;8838;-77
2023/09/06 10:07:48;;;;;;;;;12.60;12.40;;;;;26.02;30.15;99985.25;5086865;28;8865;-76
2023/09/06 10:10:19;;;;;;;;;16.00;14.20;;;;;26.12;29.95;99989.91;5086334;28;8857;-78
2023/09/06 10:12:50;;;;;;;;;11.80;11.80;;;;;26.07;29.80;99977.63;5086475;28;8853;-78
2023/09/06 10:15:20;;;;;;;;;13.00;13.00;;;;;25.91;31.02;99979.84;5069552;28;8872;-77
2023/09/06 10:17:51;;;;;;;;;12.60;11.80;;;;;25.52;30.56;99980.09;5086409;28;8861;-73
2023/09/06 10:20:23;;;;;;;;;9.80;9.80;;;;;25.73;30.60;99984.78;5052943;28;8893;-75
2023/09/06 10:22:53;;;;;;;;;10.60;10.60;;;;;25.43;31.09;99983.47;5086290;28;8873;-76
2023/09/06 10:25:22;;;;;;;;;11.60;11.20;;;;;25.53;30.91;99970.19;5086659;28;8830;-77
2023/09/06 10:27:52;;;;;;;;;12.80;11.80;;;;;25.63;30.38;99979.25;5086402;28;8884;-78
2023/09/06 10:30:28;;;;;;;;;12.00;11.00;;;;;25.60;30.63;99975.94;5086741;28;8954;-76
2023/09/06 10:32:59;;;;;;;;;11.60;11.60;;;;;25.52;30.68;99981.94;5086425;28;8882;-76
2023/09/06 10:35:32;;;;;;;;;11.00;11.00;;;;;25.62;29.55;99976.69;5100074;28;8837;-75
2023/09/06 10:38:02;;;;;;;;;12.40;12.00;;;;;25.80;29.75;99969.88;5072902;28;8865;-77
2023/09/06 10:41:11;;;;;;;;;11.40;9.20;;;;;25.83;30.37;99968.75;5109095;28;8829;-78
2023/09/06 10:44:06;;;;;;;;;12.60;11.60;;;;;26.04;30.50;99972.50;5055621;28;9061;-76
2023/09/06 10:46:35;;;;;;;;;11.40;11.40;;;;;25.96;29.66;99968.69;4958377;28;8846;-75
2023/09/06 10:49:23;;;;;;;;;12.60;11.80;;;;;26.05;29.77;99959.88;5006031;28;10090;-74
2023/09/06 10:52:01;;;;;;;;;10.40;10.40;;;;;26.17;29.59;99966.97;5006890;28;8938;-75
2023/09/06 10:54:35;;;;;;;;;12.00;12.00;;;;;26.06;30.13;99967.00;5007021;28;8866;-75
2023/09/06 10:57:06;;;;;;;;;10.40;10.40;;;;;26.29;29.84;99960.63;5016622;28;8949;-75
2023/09/06 10:59:38;;;;;;;;;10.60;10.40;;;;;25.97;29.84;99957.81;5026249;28;9617;-75
2023/09/06 11:02:26;;;;;;;;;11.80;11.80;;;;;26.14;29.56;99952.91;5026363;28;8876;-76
2023/09/06 11:05:07;;;;;;;;;13.80;13.00;;;;;26.10;29.44;99957.69;5026069;28;8920;-73
2023/09/06 11:07:38;;;;;;;;;12.60;12.00;;;;;26.30;29.53;99950.69;5026346;28;8856;-75
2023/09/06 11:10:22;;;;;;;;;11.80;10.20;;;;;26.49;28.94;99950.06;5025296;28;8860;-75
2023/09/06 11:12:55;;;;;;;;;11.20;11.00;;;;;26.56;28.61;99951.28;5026114;28;8987;-74
2023/09/06 11:15:24;;;;;;;;;12.80;10.80;;;;;26.37;28.38;99949.22;5026094;28;8860;-76
2023/09/06 11:17:59;;;;;;;;;12.00;12.00;;;;;26.61;27.84;99951.78;5013324;28;8852;-75
2023/09/06 11:20:31;;;;;;;;;10.60;9.80;;;;;26.77;27.88;99940.56;5052090;28;8891;-76
2023/09/06 11:23:01;;;;;;;;;11.60;11.60;;;;;26.89;27.82;99935.13;5095633;28;8837;-77
2023/09/06 11:25:32;;;;;;;;;10.40;10.40;;;;;26.95;27.52;99931.91;5112758;28;8876;-75
2023/09/06 11:28:02;;;;;;;;;12.40;12.40;;;;;26.95;27.64;99937.31;5112891;28;8837;-73
2023/09/06 11:30:36;;;;;;;;;11.60;11.60;;;;;26.99;26.81;99923.47;5096082;28;9010;-76
2023/09/06 11:33:07;;;;;;;;;11.20;11.20;;;;;27.02;26.97;99930.47;5092604;28;8835;-75
2023/09/06 11:35:42;;;;;;;;;10.00;9.40;;;;;27.06;26.84;99921.13;5091581;28;8944;-74
2023/09/06 11:38:16;;;;;;;;;9.40;9.40;;;;;27.22;27.16;99920.69;5089780;28;8967;-75
2023/09/06 11:40:46;;;;;;;;;8.40;8.40;;;;;27.42;27.17;99916.25;5092236;28;8851;-76
2023/09/06 11:43:17;;;;;;;;;12.25;11.25;;;;;27.55;27.13;99913.34;5089541;28;8944;-73